createdAt,value
2022-11-13T00:01:24.091Z,73.07
2022-11-13T00:04:11.793Z,73.03
2022-11-13T00:07:00.006Z,73.16
2022-11-13T00:09:47.637Z,73.39
2022-11-13T00:12:35.312Z,73.26
2022-11-13T00:15:23.067Z,72.76
2022-11-13T00:18:10.791Z,73.01
2022-11-13T00:20:59.977Z,73.02
2022-11-13T00:23:47.501Z,73.00
2022-11-13T00:26:34.873Z,72.87
2022-11-13T00:29:22.659Z,72.34
2022-11-13T00:32:10.191Z,72.73
2022-11-13T00:34:57.631Z,73.15
2022-11-13T00:37:44.530Z,73.77
2022-11-13T00:40:32.601Z,73.91
2022-11-13T00:43:20.306Z,74.32
2022-11-13T00:46:09.051Z,74.57
2022-11-13T00:48:56.755Z,74.66
2022-11-13T00:51:44.714Z,74.85
2022-11-13T00:54:32.036Z,74.53
2022-11-13T00:57:19.734Z,74.76
2022-11-13T01:00:08.026Z,74.58
2022-11-13T01:02:57.368Z,74.82
2022-11-13T01:05:49.393Z,74.51
2022-11-13T01:08:38.003Z,74.52
2022-11-13T01:11:30.803Z,74.61
2022-11-13T01:14:20.413Z,74.10
2022-11-13T01:17:08.227Z,73.60
2022-11-13T01:19:56.498Z,73.83
2022-11-13T01:22:44.702Z,73.20
2022-11-13T01:25:33.346Z,73.78
2022-11-13T01:28:20.914Z,73.53
2022-11-13T01:31:11.260Z,73.15
2022-11-13T01:33:59.744Z,73.08
2022-11-13T01:36:48.508Z,73.34
2022-11-13T01:39:36.710Z,73.09
2022-11-13T01:42:24.363Z,72.84
2022-11-13T01:45:49.424Z,72.39
2022-11-13T01:48:44.700Z,71.57
2022-11-13T01:52:00.338Z,70.74
2022-11-13T01:55:13.215Z,70.25
2022-11-13T01:58:01.897Z,70.35
2022-11-13T02:00:50.366Z,70.27
2022-11-13T02:03:38.542Z,70.92
2022-11-13T02:06:30.140Z,70.36
2022-11-13T02:09:21.815Z,70.15
2022-11-13T02:12:13.871Z,70.47
2022-11-13T02:15:04.441Z,71.24
2022-11-13T02:18:01.090Z,70.57
2022-11-13T02:21:07.461Z,70.77
2022-11-13T02:24:18.387Z,71.00
2022-11-13T02:27:10.228Z,69.91
2022-11-13T02:29:58.573Z,69.54
2022-11-13T02:32:52.177Z,69.26
2022-11-13T02:35:40.949Z,68.84
2022-11-13T02:38:29.438Z,68.19
2022-11-13T02:41:17.803Z,67.78
2022-11-13T02:44:07.854Z,67.43
2022-11-13T02:46:55.944Z,67.06
2022-11-13T02:49:43.755Z,66.67
2022-11-13T02:52:32.828Z,66.51
2022-11-13T02:55:20.949Z,66.42
2022-11-13T02:58:09.156Z,66.16
2022-11-13T03:00:57.389Z,66.62
2022-11-13T03:03:57.504Z,67.23
2022-11-13T03:06:46.066Z,66.08
2022-11-13T03:09:34.633Z,65.50
2022-11-13T03:12:22.832Z,65.12
2022-11-13T03:15:12.285Z,64.42
2022-11-13T03:18:03.733Z,63.79
2022-11-13T03:20:55.433Z,63.51
2022-11-13T03:23:46.575Z,62.91
2022-11-13T03:26:35.248Z,62.56
2022-11-13T03:29:23.170Z,62.43
2022-11-13T03:32:11.244Z,61.04
2022-11-13T03:34:59.474Z,61.01
2022-11-13T03:37:48.239Z,60.89
2022-11-13T03:40:36.504Z,60.85
2022-11-13T03:43:25.667Z,60.53
2022-11-13T03:46:13.865Z,60.46
2022-11-13T03:49:02.217Z,58.80
2022-11-13T03:51:50.586Z,58.53
2022-11-13T03:54:39.062Z,57.72
2022-11-13T03:57:26.830Z,56.53
2022-11-13T04:00:16.673Z,56.14
2022-11-13T04:03:05.222Z,55.75
2022-11-13T04:05:56.338Z,55.21
2022-11-13T04:08:44.151Z,55.07
2022-11-13T04:11:32.996Z,56.33
2022-11-13T04:14:20.728Z,55.32
2022-11-13T04:17:09.172Z,53.76
2022-11-13T04:19:56.834Z,53.94
2022-11-13T04:22:44.923Z,54.05
2022-11-13T04:25:32.704Z,54.61
2022-11-13T04:28:21.545Z,54.53
2022-11-13T04:31:09.025Z,53.62
2022-11-13T04:33:56.978Z,53.10
2022-11-13T04:36:45.136Z,53.75
2022-11-13T04:39:33.267Z,53.90
2022-11-13T04:42:39.091Z,53.01
2022-11-13T04:45:30.561Z,51.18
2022-11-13T04:48:17.887Z,50.39
2022-11-13T04:51:06.720Z,49.34
2022-11-13T04:53:54.485Z,48.97
2022-11-13T04:56:42.446Z,46.89
2022-11-13T04:59:30.047Z,47.84
2022-11-13T05:02:17.779Z,46.39
2022-11-13T05:05:06.136Z,45.37
2022-11-13T05:07:55.233Z,45.09
2022-11-13T05:10:43.284Z,45.64
2022-11-13T05:13:38.587Z,45.27
2022-11-13T05:16:26.612Z,45.19
2022-11-13T05:19:14.802Z,45.11
2022-11-13T05:22:03.976Z,44.61
2022-11-13T05:24:51.971Z,44.41
2022-11-13T05:27:39.887Z,42.81
2022-11-13T05:30:28.926Z,43.09
2022-11-13T05:33:17.048Z,43.17
2022-11-13T05:36:14.157Z,44.10
2022-11-13T05:39:01.697Z,43.56
2022-11-13T05:41:49.776Z,42.57
2022-11-13T05:44:37.419Z,42.23
2022-11-13T05:47:24.989Z,42.31
2022-11-13T05:50:12.468Z,42.13
2022-11-13T05:52:59.808Z,40.91
2022-11-13T05:55:47.282Z,39.52
2022-11-13T05:58:35.504Z,39.33
2022-11-13T06:01:28.654Z,38.80
2022-11-13T06:04:16.114Z,38.87
2022-11-13T06:07:03.736Z,39.44
2022-11-13T06:09:52.051Z,39.03
2022-11-13T06:12:39.447Z,37.26
2022-11-13T06:15:27.768Z,38.10
2022-11-13T06:18:15.302Z,37.52
2022-11-13T06:21:05.161Z,37.45
2022-11-13T06:23:52.636Z,37.86
2022-11-13T06:26:40.877Z,38.81
2022-11-13T06:29:28.632Z,38.58
2022-11-13T06:32:15.933Z,39.29
2022-11-13T06:35:05.436Z,39.38
2022-11-13T06:37:52.591Z,39.12
2022-11-13T06:40:41.305Z,38.52
2022-11-13T06:43:29.393Z,37.84
2022-11-13T06:46:20.811Z,37.37
2022-11-13T06:49:08.052Z,36.91
2022-11-13T06:51:55.716Z,36.76
2022-11-13T06:54:42.813Z,37.41
2022-11-13T06:57:30.340Z,36.99
2022-11-13T07:00:18.479Z,35.61
2022-11-13T07:03:07.923Z,35.37
2022-11-13T07:05:54.934Z,35.19
2022-11-13T07:08:44.425Z,34.71
2022-11-13T07:11:31.500Z,33.90
2022-11-13T07:14:19.611Z,33.62
2022-11-13T07:17:10.684Z,33.79
2022-11-13T07:19:58.280Z,33.26
2022-11-13T07:22:45.281Z,34.07
2022-11-13T07:25:34.028Z,33.51
2022-11-13T07:28:21.271Z,33.15
2022-11-13T07:31:09.534Z,33.32
2022-11-13T07:33:56.709Z,33.85
2022-11-13T07:36:44.456Z,33.44
2022-11-13T07:39:31.650Z,33.46
2022-11-13T07:42:19.214Z,33.77
2022-11-13T07:45:09.857Z,32.99
2022-11-13T07:48:02.498Z,33.22
2022-11-13T07:50:50.545Z,33.69
2022-11-13T07:53:40.204Z,33.00
2022-11-13T07:56:28.252Z,33.60
2022-11-13T07:59:16.393Z,33.54
2022-11-13T08:02:04.054Z,33.44
2022-11-13T08:04:54.220Z,33.34
2022-11-13T08:07:41.588Z,33.64
2022-11-13T08:10:31.179Z,33.38
2022-11-13T08:13:18.875Z,33.70
2022-11-13T08:16:09.704Z,33.40
2022-11-13T08:18:58.754Z,33.44
2022-11-13T08:21:48.138Z,33.18
2022-11-13T08:24:38.347Z,33.37
2022-11-13T08:27:27.018Z,33.13
2022-11-13T08:30:20.603Z,33.83
2022-11-13T08:33:09.584Z,33.45
2022-11-13T08:36:00.237Z,33.79
2022-11-13T08:38:50.283Z,33.93
2022-11-13T08:41:41.062Z,33.26
2022-11-13T08:44:30.565Z,32.79
2022-11-13T08:47:18.326Z,33.13
2022-11-13T08:50:09.345Z,32.86
2022-11-13T08:52:58.683Z,32.42
2022-11-13T08:55:48.158Z,32.63
2022-11-13T08:58:35.691Z,33.13
2022-11-13T09:01:24.135Z,33.09
2022-11-13T09:04:12.918Z,32.64
2022-11-13T09:07:01.587Z,32.62
2022-11-13T09:09:53.752Z,33.17
2022-11-13T09:12:41.430Z,32.89
2022-11-13T09:15:30.652Z,32.73
2022-11-13T09:18:19.972Z,32.80
2022-11-13T09:21:12.264Z,32.76
2022-11-13T09:24:00.823Z,32.38
2022-11-13T09:26:50.484Z,32.57
2022-11-13T09:29:40.561Z,31.91
2022-11-13T09:32:28.340Z,32.36
2022-11-13T09:35:15.855Z,32.25
2022-11-13T09:38:18.092Z,31.88
2022-11-13T09:41:26.015Z,32.55
2022-11-13T09:44:40.371Z,31.81
2022-11-13T09:47:36.646Z,31.29
2022-11-13T09:50:30.881Z,32.05
2022-11-13T09:53:19.016Z,31.37
2022-11-13T09:56:29.585Z,31.72
2022-11-13T09:59:35.501Z,32.39
2022-11-13T10:02:31.259Z,32.78
2022-11-13T10:05:46.111Z,32.82
2022-11-13T10:08:47.961Z,34.28
2022-11-13T10:11:45.684Z,34.67
2022-11-13T10:14:52.573Z,34.67
2022-11-13T10:17:49.029Z,33.71
2022-11-13T10:20:41.826Z,33.52
2022-11-13T10:23:41.139Z,33.42
2022-11-13T10:26:30.969Z,33.54
2022-11-13T10:29:22.254Z,33.37
2022-11-13T10:32:33.654Z,33.35
2022-11-13T10:35:51.944Z,33.64
2022-11-13T10:39:01.157Z,34.28
2022-11-13T10:41:55.709Z,32.85
2022-11-13T10:44:56.390Z,33.89
2022-11-13T10:48:07.480Z,33.13
2022-11-13T10:51:23.540Z,34.58
2022-11-13T10:54:29.491Z,33.94
2022-11-13T10:57:38.594Z,34.47
2022-11-13T11:00:33.987Z,34.85
2022-11-13T11:03:24.929Z,35.27
2022-11-13T11:06:15.230Z,35.37
2022-11-13T11:09:29.139Z,35.51
2022-11-13T11:12:29.040Z,36.19
2022-11-13T11:15:28.576Z,37.47
2022-11-13T11:18:48.828Z,36.65
2022-11-13T11:21:42.037Z,37.11
2022-11-13T11:24:38.207Z,36.64
2022-11-13T11:27:50.942Z,36.30
2022-11-13T11:31:22.817Z,36.81
2022-11-13T11:34:20.497Z,36.98
2022-11-13T11:37:17.895Z,37.48
2022-11-13T11:40:21.505Z,37.23
2022-11-13T11:43:18.279Z,37.61
2022-11-13T11:46:05.890Z,38.15
2022-11-13T11:48:54.073Z,38.59
2022-11-13T11:52:25.726Z,38.86
2022-11-13T11:55:51.427Z,39.16
2022-11-13T11:59:01.362Z,39.60
2022-11-13T12:02:12.638Z,39.78
2022-11-13T12:05:30.894Z,40.75
2022-11-13T12:08:52.454Z,40.45
2022-11-13T12:11:58.339Z,40.68
2022-11-13T12:14:50.899Z,40.61
2022-11-13T12:17:47.704Z,40.45
2022-11-13T12:21:01.705Z,40.35
2022-11-13T12:24:24.644Z,40.03
2022-11-13T12:27:30.081Z,41.40
2022-11-13T12:30:21.483Z,41.10
2022-11-13T12:33:37.722Z,42.48
2022-11-13T12:36:26.324Z,41.69
2022-11-13T12:39:31.701Z,41.65
2022-11-13T12:42:31.050Z,41.50
2022-11-13T12:45:39.831Z,41.55
2022-11-13T12:48:36.804Z,41.94
2022-11-13T12:51:24.524Z,41.65
2022-11-13T12:54:13.550Z,42.83
2022-11-13T12:57:19.173Z,44.67
2022-11-13T13:00:28.033Z,44.76
2022-11-13T13:03:38.227Z,45.72
2022-11-13T13:07:02.107Z,44.21
2022-11-13T13:10:04.628Z,44.78
2022-11-13T13:13:06.581Z,45.12
2022-11-13T13:16:03.781Z,44.53
2022-11-13T13:18:51.317Z,47.11
2022-11-13T13:21:44.305Z,45.11
2022-11-13T13:24:38.893Z,47.68
2022-11-13T13:27:30.227Z,46.43
2022-11-13T13:30:29.419Z,45.93
2022-11-13T13:33:35.061Z,46.36
2022-11-13T13:36:51.087Z,47.46
2022-11-13T13:39:58.905Z,50.09
2022-11-13T13:43:13.679Z,48.74
2022-11-13T13:46:12.697Z,50.31
2022-11-13T13:49:10.640Z,51.52
2022-11-13T13:51:59.481Z,51.78
2022-11-13T13:54:47.915Z,51.60
2022-11-13T13:57:41.435Z,51.41
2022-11-13T14:00:29.351Z,51.92
2022-11-13T14:03:21.652Z,52.54
2022-11-13T14:06:24.665Z,50.61
2022-11-13T14:09:18.201Z,51.35
2022-11-13T14:12:10.095Z,50.91
2022-11-13T14:14:57.808Z,49.89
2022-11-13T14:17:45.290Z,49.01
2022-11-13T14:20:41.032Z,49.40
2022-11-13T14:23:49.948Z,49.70
2022-11-13T14:26:37.625Z,50.01
2022-11-13T14:29:41.102Z,51.33
2022-11-13T14:32:32.633Z,50.38
2022-11-13T14:35:27.953Z,51.25
2022-11-13T14:38:27.701Z,50.68
2022-11-13T14:41:30.518Z,52.88
2022-11-13T14:44:32.398Z,52.99
2022-11-13T14:47:29.733Z,50.73
2022-11-13T14:50:24.886Z,50.61
2022-11-13T14:53:12.987Z,51.19
2022-11-13T14:56:06.263Z,53.70
2022-11-13T14:58:53.842Z,53.64
2022-11-13T15:01:41.492Z,53.74
2022-11-13T15:04:29.651Z,53.13
2022-11-13T15:07:32.057Z,54.17
2022-11-13T15:10:22.067Z,53.71
2022-11-13T15:13:18.081Z,53.99
2022-11-13T15:16:05.599Z,54.94
2022-11-13T15:19:05.522Z,54.98
2022-11-13T15:22:25.240Z,55.17
2022-11-13T15:25:00.873Z,54.81
2022-11-13T15:27:48.424Z,54.67
2022-11-13T15:30:36.921Z,54.96
2022-11-13T15:33:24.893Z,55.06
2022-11-13T15:36:12.404Z,54.53
2022-11-13T15:39:02.370Z,54.81
2022-11-13T15:41:54.631Z,54.80
2022-11-13T15:44:42.097Z,54.78
2022-11-13T15:47:35.994Z,55.00
2022-11-13T15:50:23.697Z,54.59
2022-11-13T15:53:15.754Z,55.58
2022-11-13T15:56:06.109Z,55.76
2022-11-13T15:58:53.709Z,55.26
2022-11-13T16:01:42.112Z,55.51
2022-11-13T16:04:50.470Z,55.62
2022-11-13T16:07:41.140Z,55.44
2022-11-13T16:10:30.054Z,56.03
2022-11-13T16:13:17.463Z,56.21
2022-11-13T16:16:05.842Z,54.79
2022-11-13T16:18:58.831Z,55.66
2022-11-13T16:21:47.703Z,55.87
2022-11-13T16:24:35.131Z,55.92
2022-11-13T16:27:33.011Z,56.06
2022-11-13T16:30:24.190Z,55.51
2022-11-13T16:33:12.066Z,55.73
2022-11-13T16:35:59.536Z,55.26
2022-11-13T16:38:47.820Z,55.55
2022-11-13T16:41:34.968Z,55.81
2022-11-13T16:44:22.806Z,56.21
2022-11-13T16:47:25.319Z,55.43
2022-11-13T16:50:28.098Z,55.13
2022-11-13T16:53:15.343Z,55.62
2022-11-13T16:56:03.320Z,55.98
2022-11-13T16:58:50.663Z,56.27
2022-11-13T17:01:38.278Z,58.09
2022-11-13T17:04:25.633Z,57.49
2022-11-13T17:07:17.794Z,54.87
2022-11-13T17:13:14.215Z,54.81
2022-11-13T17:16:03.098Z,55.51
2022-11-13T17:18:51.658Z,56.07
2022-11-13T17:21:43.744Z,56.87
2022-11-13T17:24:31.651Z,56.94
2022-11-13T17:27:19.819Z,56.35
2022-11-13T17:30:07.630Z,56.24
2022-11-13T17:32:55.282Z,56.13
2022-11-13T17:35:42.915Z,54.60
2022-11-13T17:38:30.759Z,54.57
2022-11-13T17:41:18.921Z,53.88
2022-11-13T17:44:07.112Z,53.74
2022-11-13T17:46:54.349Z,52.98
2022-11-13T17:49:42.263Z,53.59
2022-11-13T17:52:29.702Z,54.99
2022-11-13T17:55:18.655Z,54.20
2022-11-13T17:58:06.016Z,54.00
2022-11-13T18:00:54.465Z,54.71
2022-11-13T18:03:42.171Z,54.57
2022-11-13T18:06:30.091Z,55.54
2022-11-13T18:09:17.315Z,55.36
2022-11-13T18:12:05.160Z,55.82
2022-11-13T18:14:56.220Z,55.92
2022-11-13T18:17:43.959Z,54.81
2022-11-13T18:20:31.409Z,54.58
2022-11-13T18:23:19.673Z,53.81
2022-11-13T18:26:16.613Z,53.73
2022-11-13T18:29:05.045Z,54.18
2022-11-13T18:31:52.340Z,55.16
2022-11-13T18:34:40.221Z,53.67
2022-11-13T18:37:27.745Z,53.73
2022-11-13T18:40:15.483Z,54.28
2022-11-13T18:43:03.030Z,53.85
2022-11-13T18:45:58.555Z,53.38
2022-11-13T18:48:47.032Z,52.94
2022-11-13T18:51:39.636Z,53.59
2022-11-13T18:54:27.781Z,53.71
2022-11-13T18:57:15.553Z,53.58
2022-11-13T19:00:02.991Z,53.86
2022-11-13T19:02:52.739Z,54.28
2022-11-13T19:05:45.215Z,55.74
2022-11-13T19:08:36.001Z,57.60
2022-11-13T19:11:27.248Z,58.44
2022-11-13T19:14:17.121Z,59.16
2022-11-13T19:17:04.635Z,59.68
2022-11-13T19:19:52.315Z,59.63
2022-11-13T19:22:39.844Z,60.49
2022-11-13T19:25:27.698Z,61.22
2022-11-13T19:28:15.084Z,61.11
2022-11-13T19:31:07.561Z,62.54
2022-11-13T19:34:03.731Z,61.59
2022-11-13T19:36:52.695Z,62.60
2022-11-13T19:39:40.345Z,63.16
2022-11-13T19:42:27.865Z,64.14
2022-11-13T19:45:15.485Z,64.90
2022-11-13T19:48:02.438Z,64.91
2022-11-13T19:50:49.477Z,65.99
2022-11-13T19:53:38.813Z,66.98
2022-11-13T19:56:29.306Z,67.77
2022-11-13T19:59:16.780Z,68.39
2022-11-13T20:02:04.377Z,69.53
2022-11-13T20:04:51.723Z,70.17
2022-11-13T20:07:39.269Z,68.96
2022-11-13T20:10:27.550Z,69.34
2022-11-13T20:13:15.093Z,69.78
2022-11-13T20:16:02.829Z,68.98
2022-11-13T20:18:50.709Z,68.40
2022-11-13T20:21:38.200Z,67.29
2022-11-13T20:24:25.815Z,66.95
2022-11-13T20:27:14.101Z,67.34
2022-11-13T20:30:01.373Z,66.52
2022-11-13T20:32:49.223Z,67.43
2022-11-13T20:35:36.837Z,67.41
2022-11-13T20:38:24.155Z,67.37
2022-11-13T20:41:12.917Z,67.38
2022-11-13T20:44:03.064Z,67.67
2022-11-13T20:46:50.405Z,67.61
2022-11-13T20:49:38.271Z,67.50
2022-11-13T20:52:25.775Z,67.47
2022-11-13T20:55:13.959Z,67.69
2022-11-13T20:58:01.816Z,68.25
2022-11-13T21:00:49.391Z,68.84
2022-11-13T21:03:41.363Z,69.41
2022-11-13T21:06:29.481Z,70.03
2022-11-13T21:09:17.091Z,70.91
2022-11-13T21:12:04.858Z,71.50
2022-11-13T21:14:52.998Z,72.76
2022-11-13T21:17:41.195Z,74.10
2022-11-13T21:20:28.388Z,73.49
2022-11-13T21:23:16.050Z,73.09
2022-11-13T21:26:05.338Z,73.75
2022-11-13T21:28:59.484Z,73.75
2022-11-13T21:31:47.508Z,73.89
2022-11-13T21:34:35.097Z,74.40
2022-11-13T21:37:22.926Z,73.45
2022-11-13T21:40:13.212Z,74.31
2022-11-13T21:43:00.809Z,74.11
2022-11-13T21:45:48.347Z,73.88
2022-11-13T21:48:36.001Z,74.10
2022-11-13T21:51:23.741Z,74.54
2022-11-13T21:54:11.770Z,74.84
2022-11-13T21:56:59.537Z,74.25
2022-11-13T21:59:46.884Z,74.54
2022-11-13T22:02:34.528Z,74.17
2022-11-13T22:05:21.924Z,74.19
2022-11-13T22:08:09.943Z,73.57
2022-11-13T22:10:57.099Z,73.55
2022-11-13T22:13:45.681Z,73.39
2022-11-13T22:16:36.496Z,73.63
2022-11-13T22:19:27.665Z,73.30
2022-11-13T22:22:16.715Z,73.88
2022-11-13T22:25:04.278Z,73.96
2022-11-13T22:27:51.513Z,73.40
2022-11-13T22:30:39.831Z,73.66
2022-11-13T22:33:32.493Z,73.69
2022-11-13T22:36:22.615Z,73.81
2022-11-13T22:39:10.010Z,73.71
2022-11-13T22:41:57.521Z,74.29
2022-11-13T22:44:55.469Z,75.44
2022-11-13T22:47:43.828Z,78.01
2022-11-13T22:50:31.515Z,77.46
2022-11-13T22:53:19.070Z,78.48
2022-11-13T22:56:12.633Z,78.44
2022-11-13T22:59:02.378Z,78.90
2022-11-13T23:01:49.923Z,78.91
2022-11-13T23:04:37.807Z,78.71
2022-11-13T23:07:25.382Z,78.16
2022-11-13T23:10:13.278Z,77.13
2022-11-13T23:13:00.522Z,76.81
2022-11-13T23:15:48.342Z,76.28
2022-11-13T23:18:36.115Z,75.65
2022-11-13T23:21:26.467Z,75.80
2022-11-13T23:24:14.376Z,75.37
2022-11-13T23:27:03.495Z,75.43
2022-11-13T23:29:51.020Z,75.55
2022-11-13T23:32:38.573Z,75.32
2022-11-13T23:35:25.785Z,74.58
2022-11-13T23:38:14.022Z,74.65
2022-11-13T23:41:02.252Z,74.11
2022-11-13T23:46:57.696Z,73.61
2022-11-13T23:49:45.324Z,73.18
2022-11-13T23:52:33.188Z,71.99
2022-11-13T23:55:22.400Z,72.63
2022-11-13T23:58:15.179Z,72.72
